Time;durP1;ratioP1;P1;durP2;ratioP2;P2;SDS_P1;SDS_P2;PMS_P1;PMS_P2;Temp;Humidity;BMP_temperature;BMP_pressure;BME280_temperature;BME280_humidity;BME280_pressure;Samples;Min_cycle;Max_cycle;Signal;HPM_P1;HPM_P2
2022/02/12 00:02:15;;;;;;;35.33;17.08;;;;;;;-1.06;70.82;98914.72;5000248;28;20069;-90
2022/02/12 00:04:42;;;;;;;43.67;18.63;;;;;;;-1.11;71.00;98916.69;5034935;28;20054;-90
2022/02/12 00:07:08;;;;;;;38.33;17.23;;;;;;;-1.06;71.08;98922.59;5037492;28;20433;-90
2022/02/12 00:09:34;;;;;;;38.85;17.35;;;;;;;-1.01;70.59;98912.78;5022713;28;20058;-90
2022/02/12 00:12:00;;;;;;;36.30;17.13;;;;;;;-1.06;70.75;98909.47;5034566;28;20038;-92
2022/02/12 00:14:26;;;;;;;37.28;17.33;;;;;;;-1.08;71.07;98917.41;5016130;28;20045;-90
2022/02/12 00:16:52;;;;;;;40.35;18.75;;;;;;;-1.02;71.15;98921.56;4998163;28;20053;-90
2022/02/12 00:19:18;;;;;;;43.67;19.08;;;;;;;-1.02;71.12;98906.66;4999045;28;20046;-89
2022/02/12 00:21:44;;;;;;;38.65;18.25;;;;;;;-1.04;71.40;98910.28;5018165;28;20041;-87
2022/02/12 00:24:10;;;;;;;39.30;16.98;;;;;;;-0.95;71.18;98911.69;5022545;28;20049;-87
2022/02/12 00:26:36;;;;;;;47.50;19.05;;;;;;;-0.93;70.64;98910.72;5020569;28;20053;-90
2022/02/12 00:29:02;;;;;;;43.78;19.95;;;;;;;-0.92;70.75;98915.03;5020709;28;20096;-89
2022/02/12 00:31:29;;;;;;;37.33;17.48;;;;;;;-0.89;70.96;98899.16;4998261;28;20053;-90
2022/02/12 00:33:55;;;;;;;43.85;18.65;;;;;;;-0.98;70.87;98912.66;5015624;28;20053;-92
2022/02/12 00:36:21;;;;;;;44.90;19.08;;;;;;;-0.92;70.70;98906.31;4998167;28;20133;-90
2022/02/12 00:38:50;;;;;;;40.70;18.52;;;;;;;-0.84;70.80;98902.44;4998931;28;20045;-92
2022/02/12 00:41:15;;;;;;;40.67;18.35;;;;;;;-0.83;70.47;98901.56;4982157;28;20048;-91
2022/02/12 00:43:41;;;;;;;47.22;19.42;;;;;;;-0.85;70.75;98903.38;4998353;28;20046;-92
2022/02/12 00:46:07;;;;;;;41.72;17.70;;;;;;;-0.82;70.19;98900.63;4998169;28;20095;-93
2022/02/12 00:48:33;;;;;;;38.47;17.80;;;;;;;-0.85;70.47;98900.75;5014706;28;20128;-91
2022/02/12 00:50:59;;;;;;;40.30;17.88;;;;;;;-0.90;70.48;98893.97;5014828;28;20041;-90
2022/02/12 00:53:26;;;;;;;37.25;17.65;;;;;;;-0.92;70.71;98886.16;4998263;28;20064;-92
2022/02/12 00:55:52;;;;;;;37.78;16.60;;;;;;;-0.92;70.84;98891.41;5014733;28;20042;-92
2022/02/12 00:58:19;;;;;;;42.65;18.17;;;;;;;-1.02;70.26;98898.78;5013879;28;20099;-92
2022/02/12 01:00:45;;;;;;;42.60;17.58;;;;;;;-1.17;71.32;98895.94;4982269;28;20037;-90
2022/02/12 01:03:11;;;;;;;38.22;16.63;;;;;;;-1.22;71.47;98906.63;5015486;28;20046;-90
2022/02/12 01:05:37;;;;;;;37.25;17.50;;;;;;;-1.17;71.81;98909.03;4982569;28;20046;-92
2022/02/12 01:08:04;;;;;;;36.55;16.20;;;;;;;-1.15;71.61;98910.72;5014608;28;20141;-92
2022/02/12 01:10:31;;;;;;;38.40;18.83;;;;;;;-1.11;71.56;98900.94;4997788;28;20180;-92
2022/02/12 01:12:58;;;;;;;38.92;18.17;;;;;;;-1.16;71.41;98897.66;4981441;28;20050;-86
2022/02/12 01:15:25;;;;;;;37.22;18.27;;;;;;;-1.22;71.42;98904.84;4996293;28;20124;-92
2022/02/12 01:17:51;;;;;;;39.78;19.70;;;;;;;-1.20;72.01;98896.94;4956972;28;20038;-84
2022/02/12 01:20:17;;;;;;;35.53;17.65;;;;;;;-1.12;72.10;98899.25;4961526;28;20054;-89
2022/02/12 01:22:44;;;;;;;40.05;18.73;;;;;;;-1.03;71.82;98894.47;4980400;28;20054;-84
2022/02/12 01:25:10;;;;;;;42.47;19.30;;;;;;;-1.01;71.26;98891.81;4973854;28;20099;-88
2022/02/12 01:27:37;;;;;;;45.58;18.65;;;;;;;-1.01;71.42;98891.81;4921834;29;20055;-91
2022/02/12 01:30:04;;;;;;;43.45;19.25;;;;;;;-1.04;71.57;98891.91;4953618;29;20051;-90
2022/02/12 01:32:30;;;;;;;38.53;18.05;;;;;;;-1.06;71.93;98891.13;4954076;29;20067;-90
2022/02/12 01:34:56;;;;;;;42.75;18.42;;;;;;;-1.03;71.61;98883.13;4953815;29;20087;-93
2022/02/12 01:37:23;;;;;;;37.67;18.40;;;;;;;-0.99;71.69;98876.84;4955119;28;20118;-86
2022/02/12 01:39:50;;;;;;;44.55;19.65;;;;;;;-0.97;71.78;98882.91;4955735;29;20589;-83
2022/02/12 01:42:16;;;;;;;41.17;17.33;;;;;;;-1.05;72.26;98869.25;4937780;29;20063;-90
2022/02/12 01:44:42;;;;;;;46.83;18.67;;;;;;;-1.05;72.06;98864.00;4937717;29;20042;-90
2022/02/12 01:47:09;;;;;;;39.00;18.63;;;;;;;-0.90;71.89;98880.84;4937725;29;20544;-93
2022/02/12 01:49:35;;;;;;;41.08;17.65;;;;;;;-0.91;71.80;98876.53;4938047;29;20586;-91
2022/02/12 01:52:03;;;;;;;37.45;18.65;;;;;;;-1.00;71.78;98893.50;4953189;29;20043;-91
2022/02/12 01:54:29;;;;;;;39.35;18.83;;;;;;;-0.98;71.99;98889.91;4937503;29;20054;-89
2022/02/12 01:56:56;;;;;;;38.75;18.42;;;;;;;-1.08;71.92;98867.59;4953214;29;20138;-90
2022/02/12 01:59:22;;;;;;;33.33;16.80;;;;;;;-1.17;72.70;98873.19;4942260;28;20054;-91
2022/02/12 02:01:48;;;;;;;33.05;16.27;;;;;;;-1.09;72.30;98880.75;4958454;28;20517;-92
2022/02/12 02:04:16;;;;;;;36.85;18.17;;;;;;;-1.08;72.62;98874.59;4974579;28;20486;-89
2022/02/12 02:06:43;;;;;;;36.75;17.65;;;;;;;-1.11;72.66;98886.06;4974925;28;20046;-91
2022/02/12 02:09:09;;;;;;;42.67;18.02;;;;;;;-1.03;72.70;98875.25;4976681;28;20069;-92
2022/02/12 02:11:36;;;;;;;34.80;16.05;;;;;;;-0.94;72.85;98871.41;4977883;28;20046;-91
2022/02/12 02:14:03;;;;;;;37.85;17.80;;;;;;;-0.85;73.00;98869.25;4959184;28;20137;-92
2022/02/12 02:16:29;;;;;;;36.78;17.92;;;;;;;-0.80;72.55;98875.16;4958296;28;20046;-93
2022/02/12 02:18:55;;;;;;;38.20;17.58;;;;;;;-0.85;72.23;98871.03;4973868;28;20047;-92
2022/02/12 02:21:22;;;;;;;33.50;16.73;;;;;;;-0.79;72.42;98876.91;4974936;28;20149;-90
2022/02/12 02:23:48;;;;;;;34.90;17.02;;;;;;;-0.78;72.69;98883.00;4957318;28;20054;-91
2022/02/12 02:26:14;;;;;;;30.45;15.52;;;;;;;-0.71;72.16;98873.06;4957911;28;20406;-90
2022/02/12 02:28:41;;;;;;;35.38;17.27;;;;;;;-0.70;72.41;98866.94;4973740;28;20070;-90
2022/02/12 02:31:07;;;;;;;34.17;15.73;;;;;;;-0.61;72.49;98884.91;4973868;28;20153;-91
2022/02/12 02:33:33;;;;;;;35.33;16.30;;;;;;;-0.64;72.21;98875.41;4975109;28;20046;-92
2022/02/12 02:35:59;;;;;;;35.20;17.40;;;;;;;-0.62;72.48;98860.44;4978355;28;20050;-91
2022/02/12 02:38:25;;;;;;;31.50;16.17;;;;;;;-0.59;71.92;98870.81;4979163;28;20074;-92
2022/02/12 02:40:54;;;;;;;27.25;15.02;;;;;;;-0.59;72.07;98856.84;4976610;28;20093;-91
2022/02/12 02:43:21;;;;;;;27.55;15.65;;;;;;;-0.54;71.77;98855.69;4942781;28;20046;-92
2022/02/12 02:45:48;;;;;;;27.63;14.82;;;;;;;-0.43;71.93;98860.50;4958292;28;20490;-90
2022/02/12 02:48:14;;;;;;;34.65;16.17;;;;;;;-0.44;71.38;98860.56;4973526;28;20073;-91
2022/02/12 02:56:12;;;;;;;33.53;15.40;;;;;;;-0.38;71.83;98866.38;4984175;28;20046;-90
2022/02/12 02:58:44;;;;;;;28.13;15.70;;;;;;;-0.53;71.37;98862.69;4965171;28;20047;-92
2022/02/12 03:01:16;;;;;;;28.02;14.82;;;;;;;-0.46;71.48;98865.03;4957552;28;20046;-88
2022/02/12 03:03:44;;;;;;;30.77;15.63;;;;;;;-0.34;71.67;98867.13;4959500;28;20047;-92
2022/02/12 03:06:10;;;;;;;33.80;15.48;;;;;;;-0.33;71.70;98872.31;4921573;29;20137;-90
2022/02/12 03:08:36;;;;;;;29.35;15.15;;;;;;;-0.30;71.30;98859.06;4937725;29;20066;-91
2022/02/12 03:11:03;;;;;;;26.35;13.88;;;;;;;-0.35;71.29;98865.41;4954582;29;20052;-94
2022/02/12 03:13:28;;;;;;;31.27;16.65;;;;;;;-0.26;71.60;98870.28;4938429;29;20079;-88
2022/02/12 03:15:55;;;;;;;26.33;14.60;;;;;;;-0.20;71.17;98858.63;4954812;29;20059;-90
2022/02/12 03:18:21;;;;;;;36.38;15.27;;;;;;;-0.07;71.00;98859.81;4946345;29;20043;-90
2022/02/12 03:20:47;;;;;;;35.38;16.00;;;;;;;0.04;70.79;98861.94;4914829;29;20083;-88
2022/02/12 03:23:12;;;;;;;31.17;15.95;;;;;;;0.04;70.28;98852.31;4978583;29;20518;-90
2022/02/12 03:25:39;;;;;;;29.42;16.20;;;;;;;-0.01;70.53;98864.78;4938829;29;20055;-88
2022/02/12 03:28:05;;;;;;;28.88;16.20;;;;;;;-0.14;70.47;98853.13;4898341;29;20047;-91
2022/02/12 03:30:33;;;;;;;29.95;16.42;;;;;;;-0.22;71.12;98855.25;4961136;29;20051;-84
2022/02/12 03:32:59;;;;;;;31.25;16.23;;;;;;;-0.21;70.83;98847.28;4959726;29;20098;-83
2022/02/12 03:35:28;;;;;;;28.52;16.10;;;;;;;-0.15;71.06;98843.53;4958592;28;20051;-85
2022/02/12 03:38:04;;;;;;;37.50;15.73;;;;;;;-0.17;71.18;98842.75;4987713;28;20082;-85
2022/02/12 03:40:31;;;;;;;32.63;15.90;;;;;;;-0.08;71.14;98839.69;4946340;28;20058;-82
2022/02/12 03:42:56;;;;;;;34.00;17.27;;;;;;;-0.05;70.91;98836.94;4983491;28;20057;-82
2022/02/12 03:45:23;;;;;;;36.83;17.95;;;;;;;-0.02;70.46;98828.94;4990549;28;20039;-81
2022/02/12 03:47:50;;;;;;;32.47;17.27;;;;;;;0.04;70.63;98839.16;4994871;28;20078;-87
2022/02/12 03:50:16;;;;;;;41.40;16.58;;;;;;;0.03;70.42;98840.06;4981590;28;20023;-84
2022/02/12 03:52:42;;;;;;;32.45;17.65;;;;;;;0.12;70.60;98844.94;4995689;28;20033;-80
2022/02/12 03:55:09;;;;;;;36.10;17.42;;;;;;;0.18;69.97;98844.63;4959290;28;20043;-85
2022/02/12 03:57:37;;;;;;;36.28;17.58;;;;;;;0.27;70.04;98839.91;4983575;28;20066;-89
2022/02/12 04:00:05;;;;;;;40.28;17.48;;;;;;;0.28;70.23;98845.06;4968543;28;20194;-83
2022/02/12 04:02:38;;;;;;;30.17;15.90;;;;;;;0.19;69.88;98829.75;4985805;28;20046;-92
2022/02/12 04:05:05;;;;;;;34.20;16.90;;;;;;;0.23;69.64;98824.25;4948349;28;20034;-87
2022/02/12 04:07:31;;;;;;;37.50;17.05;;;;;;;0.20;69.83;98837.53;4961984;28;20141;-85
2022/02/12 04:09:57;;;;;;;34.55;18.08;;;;;;;0.21;69.98;98839.22;4977191;28;20136;-91
2022/02/12 04:12:23;;;;;;;49.28;21.77;;;;;;;0.23;69.55;98837.41;4977974;28;20074;-86
2022/02/12 04:14:49;;;;;;;48.45;22.30;;;;;;;0.23;69.77;98833.94;4976386;28;20561;-83
2022/02/12 04:17:15;;;;;;;51.28;21.48;;;;;;;0.26;70.57;98820.63;4960833;28;20441;-82
2022/02/12 04:19:41;;;;;;;57.47;23.17;;;;;;;0.42;70.75;98826.03;4954121;28;20525;-91
2022/02/12 04:22:07;;;;;;;65.55;23.77;;;;;;;0.44;69.62;98829.44;4929824;28;20042;-86
2022/02/12 04:24:33;;;;;;;58.95;24.40;;;;;;;0.48;69.73;98825.72;4976147;28;20049;-86
2022/02/12 04:26:59;;;;;;;79.95;25.40;;;;;;;0.48;69.21;98833.63;4982775;28;20050;-85
2022/02/12 04:29:26;;;;;;;57.78;24.20;;;;;;;0.51;69.09;98815.06;4992052;28;20069;-87
2022/02/12 04:31:53;;;;;;;59.83;23.08;;;;;;;0.60;69.09;98825.16;4993769;28;20057;-86
2022/02/12 04:34:20;;;;;;;52.60;23.83;;;;;;;0.67;68.92;98828.34;4980794;28;20046;-90
2022/02/12 04:36:46;;;;;;;56.00;23.67;;;;;;;0.60;68.35;98825.16;4975070;28;20194;-89
2022/02/12 04:39:12;;;;;;;65.47;25.27;;;;;;;0.61;68.89;98826.88;4979703;28;20050;-88
2022/02/12 04:41:38;;;;;;;65.70;24.70;;;;;;;0.66;68.34;98824.84;4962072;28;20096;-86
2022/02/12 04:44:05;;;;;;;78.88;25.95;;;;;;;0.57;68.32;98825.31;4976530;28;20081;-83
2022/02/12 04:46:31;;;;;;;71.68;26.85;;;;;;;0.72;68.97;98824.56;4977277;28;20465;-80
2022/02/12 04:48:57;;;;;;;70.60;25.88;;;;;;;0.92;68.77;98822.75;4975733;28;20054;-83
2022/02/12 04:51:23;;;;;;;63.17;24.83;;;;;;;1.05;68.26;98826.47;4943025;28;20566;-88
2022/02/12 04:53:51;;;;;;;65.88;26.10;;;;;;;1.16;67.68;98824.16;4974692;28;20050;-81
2022/02/12 04:56:17;;;;;;;59.00;22.55;;;;;;;1.24;67.04;98820.28;4980753;28;20044;-84
2022/02/12 04:58:43;;;;;;;58.00;23.25;;;;;;;1.24;66.83;98813.22;4952049;28;20046;-86
2022/02/12 05:01:19;;;;;;;41.58;18.67;;;;;;;1.28;66.55;98811.28;4959867;28;20051;-87
2022/02/12 05:03:50;;;;;;;39.42;18.92;;;;;;;1.25;66.84;98800.94;4961524;28;20046;-84
2022/02/12 05:06:16;;;;;;;47.30;18.75;;;;;;;1.48;66.78;98816.41;4959927;28;20479;-92
2022/02/12 05:08:43;;;;;;;43.47;19.35;;;;;;;1.58;65.85;98820.28;4945902;28;20065;-88
2022/02/12 05:11:09;;;;;;;42.47;19.13;;;;;;;1.63;65.61;98815.63;4979630;28;20050;-86
2022/02/12 05:13:35;;;;;;;51.35;19.05;;;;;;;1.60;65.22;98823.66;4944613;28;20053;-90
2022/02/12 05:16:02;;;;;;;43.72;19.75;;;;;;;1.63;65.44;98820.03;4978137;28;20046;-86
2022/02/12 05:18:29;;;;;;;47.80;17.95;;;;;;;1.59;65.65;98814.06;4977233;28;20038;-89
2022/02/12 05:20:56;;;;;;;43.45;18.73;;;;;;;1.66;65.25;98811.97;4942683;28;20049;-88
2022/02/12 05:23:22;;;;;;;44.95;17.23;;;;;;;1.72;65.60;98813.44;4975030;28;20077;-85
2022/02/12 05:25:48;;;;;;;71.65;20.38;;;;;;;1.81;65.23;98807.69;4975258;28;20136;-84
2022/02/12 05:28:15;;;;;;;51.42;19.58;;;;;;;1.85;65.12;98806.59;4943100;28;20133;-89
2022/02/12 05:30:41;;;;;;;48.05;19.17;;;;;;;1.96;64.86;98809.50;4974853;28;20638;-86
2022/02/12 05:33:07;;;;;;;45.53;19.85;;;;;;;1.99;64.44;98806.69;4975020;28;20035;-86
2022/02/12 05:35:34;;;;;;;40.85;19.38;;;;;;;2.06;64.31;98805.41;4975205;28;20074;-93
2022/02/12 05:38:00;;;;;;;56.70;21.95;;;;;;;2.05;64.17;98803.72;4942095;28;20054;-88
2022/02/12 05:40:26;;;;;;;46.65;20.80;;;;;;;2.03;64.32;98808.25;4975367;28;20129;-85
2022/02/12 05:42:52;;;;;;;44.65;19.85;;;;;;;1.97;63.74;98808.56;4975902;28;20473;-88
2022/02/12 05:45:18;;;;;;;45.67;19.65;;;;;;;1.90;63.94;98810.66;4973785;28;20102;-85
2022/02/12 05:47:44;;;;;;;54.65;22.20;;;;;;;1.72;64.54;98789.72;4975003;28;20177;-90
2022/02/12 05:50:10;;;;;;;44.25;20.15;;;;;;;1.78;64.06;98803.41;4926668;28;20045;-82
2022/02/12 05:52:36;;;;;;;41.63;18.15;;;;;;;1.76;64.70;98785.97;4974123;28;20078;-85
2022/02/12 05:55:03;;;;;;;41.35;20.17;;;;;;;1.61;64.84;98783.22;4957949;28;20049;-85
2022/02/12 05:57:29;;;;;;;40.60;19.15;;;;;;;1.82;64.94;98788.31;4958436;28;20047;-85
2022/02/12 05:59:55;;;;;;;34.97;18.60;;;;;;;2.08;64.92;98782.47;4958206;28;20055;-82
2022/02/12 06:02:21;;;;;;;33.45;17.17;;;;;;;2.17;64.18;98783.75;4974197;28;20182;-87
2022/02/12 06:04:47;;;;;;;34.75;17.20;;;;;;;2.23;63.84;98779.94;4972794;28;20514;-86
2022/02/12 06:07:14;;;;;;;33.67;16.38;;;;;;;2.22;63.30;98783.50;4974809;28;20086;-90
2022/02/12 06:09:40;;;;;;;32.33;16.35;;;;;;;2.12;63.35;98778.72;4958892;28;20058;-88
2022/02/12 06:12:06;;;;;;;43.90;16.58;;;;;;;2.10;63.71;98774.47;4942876;28;20137;-88
2022/02/12 06:14:32;;;;;;;34.60;17.15;;;;;;;2.30;63.40;98776.03;4973621;28;20070;-80
2022/02/12 06:17:00;;;;;;;35.95;17.45;;;;;;;2.30;62.99;98768.13;4995532;28;20473;-89
2022/02/12 06:19:26;;;;;;;42.50;17.95;;;;;;;2.36;63.16;98780.94;4986751;28;20481;-89
2022/02/12 06:21:52;;;;;;;33.83;16.83;;;;;;;2.09;63.45;98771.00;4942000;28;20448;-86
2022/02/12 06:24:19;;;;;;;33.35;16.50;;;;;;;2.04;63.85;98780.94;4979700;28;20092;-87
2022/02/12 06:26:51;;;;;;;30.95;16.17;;;;;;;2.13;64.03;98769.03;4951975;28;20098;-91
2022/02/12 06:29:20;;;;;;;33.05;15.68;;;;;;;2.35;63.95;98776.63;4966774;28;20042;-86
2022/02/12 06:31:46;;;;;;;39.35;14.18;;;;;;;2.38;63.39;98771.19;4977784;28;20088;-87
2022/02/12 06:34:12;;;;;;;33.42;15.68;;;;;;;2.41;62.97;98765.75;4975856;28;20042;-80
2022/02/12 06:36:38;;;;;;;28.73;14.75;;;;;;;2.43;63.02;98763.84;4984435;28;20078;-91
2022/02/12 06:39:04;;;;;;;38.13;14.68;;;;;;;2.57;62.36;98763.94;4925637;28;20046;-80
2022/02/12 06:41:30;;;;;;;31.13;14.32;;;;;;;2.57;62.40;98757.81;4974445;28;20043;-85
2022/02/12 06:43:56;;;;;;;28.27;15.05;;;;;;;2.71;62.72;98764.91;4941041;28;20184;-84
2022/02/12 06:46:22;;;;;;;28.45;15.15;;;;;;;2.75;62.29;98762.03;4973001;28;20453;-84
2022/02/12 06:48:48;;;;;;;29.63;14.82;;;;;;;2.80;62.32;98764.41;4989081;28;20050;-84
2022/02/12 06:51:16;;;;;;;30.17;14.88;;;;;;;2.79;62.12;98758.28;4928998;28;20501;-83
2022/02/12 06:53:42;;;;;;;30.17;15.32;;;;;;;2.85;62.08;98751.78;4977035;28;20391;-86
2022/02/12 06:56:09;;;;;;;29.15;15.43;;;;;;;2.87;61.83;98758.69;4991602;28;20102;-85
2022/02/12 06:58:35;;;;;;;28.58;14.45;;;;;;;2.83;61.68;98757.16;4971785;28;20082;-89
2022/02/12 07:01:00;;;;;;;29.50;14.63;;;;;;;2.74;61.65;98759.47;4944623;28;20046;-88
2022/02/12 07:03:27;;;;;;;29.77;14.75;;;;;;;2.59;61.43;98762.03;4992925;28;20414;-86
2022/02/12 07:05:53;;;;;;;26.23;13.88;;;;;;;2.42;62.07;98759.53;4976159;28;20042;-87
2022/02/12 07:08:19;;;;;;;27.15;14.23;;;;;;;2.33;62.73;98738.91;4943316;28;20046;-87
2022/02/12 07:10:45;;;;;;;28.75;14.77;;;;;;;2.35;62.76;98758.16;4960623;28;20506;-87
2022/02/12 07:13:13;;;;;;;30.60;14.57;;;;;;;2.47;62.51;98757.47;4976328;28;20418;-90
2022/02/12 07:15:40;;;;;;;28.42;15.13;;;;;;;2.62;63.04;98751.31;4960394;28;20128;-87
2022/02/12 07:18:06;;;;;;;33.65;16.75;;;;;;;2.68;62.75;98756.25;4959365;28;20173;-84
2022/02/12 07:20:32;;;;;;;24.42;13.27;;;;;;;2.71;62.26;98752.59;4963100;28;20075;-92
2022/02/12 07:22:58;;;;;;;29.85;15.63;;;;;;;2.68;62.53;98761.53;4932656;28;20046;-89
2022/02/12 07:25:24;;;;;;;30.58;15.30;;;;;;;2.77;62.54;98759.28;4976341;28;20134;-87
2022/02/12 07:27:56;;;;;;;32.40;14.32;;;;;;;2.85;61.89;98751.78;4976397;28;20423;-87
2022/02/12 07:30:23;;;;;;;31.98;14.90;;;;;;;2.87;61.36;98749.91;4979998;28;20094;-84
2022/02/12 07:32:50;;;;;;;25.60;14.20;;;;;;;2.68;61.78;98753.63;4982036;28;20045;-87
2022/02/12 07:35:17;;;;;;;25.38;13.77;;;;;;;2.88;62.96;98751.59;4961428;28;20363;-88
2022/02/12 07:37:47;;;;;;;29.70;14.73;;;;;;;2.99;62.20;98743.06;4961718;28;20043;-91
2022/02/12 07:40:14;;;;;;;26.08;13.32;;;;;;;3.01;61.21;98749.97;4963138;28;20494;-90
2022/02/12 07:42:40;;;;;;;32.25;13.07;;;;;;;2.98;61.24;98741.38;4976989;28;20045;-91
2022/02/12 07:45:07;;;;;;;25.90;13.48;;;;;;;2.98;61.54;98742.22;4971840;28;20043;-93
2022/02/12 07:47:33;;;;;;;31.85;13.38;;;;;;;2.99;61.29;98748.34;4992782;28;20050;-91
2022/02/12 07:49:59;;;;;;;23.30;12.35;;;;;;;2.73;61.32;98737.50;4943661;28;20046;-89
2022/02/12 07:52:25;;;;;;;26.45;13.30;;;;;;;2.98;61.64;98747.50;4959746;28;20053;-89
2022/02/12 07:54:51;;;;;;;31.13;13.60;;;;;;;2.99;61.53;98733.34;4978169;28;20085;-95
2022/02/12 07:57:17;;;;;;;31.35;13.02;;;;;;;3.09;61.58;98745.09;4928613;28;20074;-89
2022/02/12 07:59:43;;;;;;;43.28;15.88;;;;;;;3.29;61.64;98740.41;4976135;28;20126;-91
2022/02/12 08:02:10;;;;;;;33.05;16.60;;;;;;;3.49;61.06;98725.97;4959449;28;20058;-88
2022/02/12 08:04:35;;;;;;;38.70;17.05;;;;;;;3.69;65.95;98730.06;4991360;28;20380;-88
2022/02/12 08:09:47;;;;;;;40.72;19.38;;;;;;;3.87;61.52;98726.25;4964227;28;20525;-85
2022/02/12 08:12:13;;;;;;;42.55;19.05;;;;;;;3.83;60.76;98738.81;4961863;28;20544;-93
2022/02/12 08:14:41;;;;;;;43.40;19.33;;;;;;;3.72;60.09;98722.75;4947772;28;20485;-87
2022/02/12 08:17:07;;;;;;;42.40;18.95;;;;;;;3.84;60.45;98729.09;4960754;28;20057;-89
2022/02/12 08:19:33;;;;;;;34.38;19.13;;;;;;;3.82;59.45;98717.75;4943931;28;20054;-87
2022/02/12 08:21:59;;;;;;;32.25;17.70;;;;;;;3.72;59.97;98732.50;4926244;28;20046;-86
2022/02/12 08:24:25;;;;;;;37.17;18.50;;;;;;;3.61;60.66;98714.66;4959245;28;20053;-88
2022/02/12 08:26:51;;;;;;;37.65;18.77;;;;;;;3.85;60.01;98723.72;4942963;28;20091;-88
2022/02/12 08:29:18;;;;;;;38.42;20.70;;;;;;;4.01;60.12;98723.59;4943560;28;20112;-88
2022/02/12 08:31:44;;;;;;;35.70;18.33;;;;;;;4.05;60.06;98725.09;4975333;28;20090;-84
2022/02/12 08:34:10;;;;;;;35.35;18.45;;;;;;;3.94;60.07;98726.72;4990712;28;20046;-84
2022/02/12 08:36:36;;;;;;;32.97;17.52;;;;;;;4.25;59.16;98721.19;4974182;28;20050;-83
2022/02/12 08:39:02;;;;;;;29.33;16.17;;;;;;;4.40;58.50;98716.72;4976835;28;20456;-86
2022/02/12 08:41:28;;;;;;;27.38;14.57;;;;;;;4.46;58.07;98724.25;4976207;28;20074;-83
2022/02/12 08:43:54;;;;;;;28.73;15.10;;;;;;;4.53;58.36;98709.66;4978281;28;20133;-84
2022/02/12 08:46:21;;;;;;;29.08;15.85;;;;;;;4.68;57.66;98712.25;4967318;28;20047;-87
2022/02/12 08:48:47;;;;;;;24.73;13.52;;;;;;;4.80;57.00;98706.16;4932470;28;20049;-82
2022/02/12 08:51:13;;;;;;;26.52;14.20;;;;;;;4.89;57.01;98705.56;4978438;28;20043;-88
2022/02/12 08:53:40;;;;;;;38.85;15.02;;;;;;;4.92;56.18;98710.63;4960371;28;20091;-87
2022/02/12 08:56:06;;;;;;;25.27;13.18;;;;;;;4.67;56.76;98694.69;4975890;28;20504;-85
2022/02/12 08:58:32;;;;;;;26.75;13.93;;;;;;;4.60;57.16;98695.09;4974731;28;20080;-86
2022/02/12 09:00:58;;;;;;;26.85;14.20;;;;;;;4.61;56.32;98696.78;4970989;28;20047;-90
2022/02/12 09:03:24;;;;;;;25.65;13.95;;;;;;;4.50;56.60;98693.97;4983165;28;20507;-92
2022/02/12 09:05:50;;;;;;;26.17;13.45;;;;;;;4.44;56.73;98697.06;4980108;28;20049;-93
2022/02/12 09:08:16;;;;;;;22.35;12.85;;;;;;;4.44;57.06;98697.06;4976726;28;20081;-85
2022/02/12 09:10:43;;;;;;;32.47;15.25;;;;;;;4.42;57.05;98687.50;4974168;28;20082;-86
2022/02/12 09:13:10;;;;;;;29.55;14.30;;;;;;;4.55;57.00;98686.59;4942857;28;20399;-87
2022/02/12 09:15:36;;;;;;;26.77;13.65;;;;;;;4.45;57.77;98695.25;4978209;28;20050;-90
2022/02/12 09:18:02;;;;;;;28.45;13.98;;;;;;;4.66;57.83;98693.81;4948354;28;20521;-87
2022/02/12 09:20:29;;;;;;;33.60;15.98;;;;;;;4.83;57.60;98684.75;4993256;28;20047;-87
2022/02/12 09:22:55;;;;;;;25.52;14.43;;;;;;;4.87;57.36;98695.03;4945256;28;20068;-92
2022/02/12 09:25:21;;;;;;;24.67;13.73;;;;;;;5.03;56.77;98692.19;4977748;28;20497;-88
2022/02/12 09:27:47;;;;;;;24.90;13.18;;;;;;;5.16;56.74;98680.78;4945764;28;20049;-89
2022/02/12 09:30:13;;;;;;;22.52;12.68;;;;;;;5.16;56.80;98688.75;4945790;28;20531;-89
2022/02/12 09:32:39;;;;;;;21.55;12.98;;;;;;;5.04;56.18;98688.63;4962014;28;20052;-88
2022/02/12 09:35:06;;;;;;;26.83;14.30;;;;;;;5.09;56.94;98675.91;4945928;28;20046;-91
2022/02/12 09:37:32;;;;;;;23.75;14.25;;;;;;;5.11;56.42;98679.31;4978303;28;20505;-90
2022/02/12 09:39:58;;;;;;;27.70;14.10;;;;;;;5.18;55.96;98678.88;4974145;28;20057;-91
2022/02/12 09:42:24;;;;;;;25.15;13.60;;;;;;;5.08;55.48;98676.88;4986998;28;20056;-88
2022/02/12 09:44:50;;;;;;;23.50;13.20;;;;;;;4.96;55.73;98682.97;4949429;28;20136;-85
2022/02/12 09:47:48;;;;;;;46.25;13.95;;;;;;;4.67;55.83;98677.00;4995004;28;20441;-92
2022/02/12 09:50:16;;;;;;;22.90;12.63;;;;;;;4.76;56.47;98681.66;4979901;28;20050;-94
2022/02/12 09:52:45;;;;;;;40.38;14.30;;;;;;;4.86;56.54;98689.84;4999967;28;20102;-91
2022/02/12 09:55:11;;;;;;;;;;;;;;;4.77;56.32;98675.41;4993602;28;20058;-90
2022/02/12 09:57:38;;;;;;;27.73;10.75;;;;;;;4.52;56.68;98670.91;4986974;28;20013;-90
2022/02/12 10:00:08;;;;;;;22.08;10.57;;;;;;;4.46;57.22;98666.03;4979905;28;20053;-89
2022/02/12 10:02:34;;;;;;;32.65;11.63;;;;;;;4.53;57.30;98675.25;4984313;28;20049;-94
2022/02/12 10:05:20;;;;;;;21.35;11.52;;;;;;;4.63;56.75;98671.06;4987228;28;20529;-92
2022/02/12 10:07:47;;;;;;;33.05;11.95;;;;;;;4.62;56.73;98672.00;4962556;28;20050;-92
2022/02/12 10:10:18;;;;;;;21.02;12.43;;;;;;;4.65;56.86;98670.09;4978723;28;20506;-92
2022/02/12 10:12:44;;;;;;;22.65;12.13;;;;;;;4.73;56.66;98679.22;4962452;28;20048;-92
2022/02/12 10:15:23;;;;;;;22.20;12.40;;;;;;;4.74;56.34;98669.47;4981719;28;20394;-93
2022/02/12 10:17:54;;;;;;;35.58;12.02;;;;;;;4.57;56.28;98663.50;4995085;28;20043;-91
2022/02/12 10:20:26;;;;;;;21.13;12.57;;;;;;;4.05;57.32;98674.84;4981310;28;20046;-92
2022/02/12 10:22:53;;;;;;;25.27;12.02;;;;;;;3.59;58.86;98680.41;5000059;28;20498;-89
2022/02/12 10:25:20;;;;;;;19.95;11.10;;;;;;;3.61;58.97;98678.53;4999529;28;20391;-89
2022/02/12 10:27:46;;;;;;;20.05;11.32;;;;;;;3.36;59.27;98678.34;5001304;28;20042;-93
2022/02/12 10:30:12;;;;;;;25.17;12.77;;;;;;;3.25;59.77;98680.78;4981061;28;20529;-91
2022/02/12 10:32:38;;;;;;;21.02;12.25;;;;;;;2.90;60.88;98686.38;5001428;28;20046;-86
2022/02/12 10:35:09;;;;;;;25.23;13.35;;;;;;;2.82;61.79;98681.56;4968533;28;20049;-85
2022/02/12 10:37:42;;;;;;;21.45;11.40;;;;;;;2.68;61.56;98679.72;4996484;28;20517;-85
2022/02/12 10:40:09;;;;;;;24.52;12.23;;;;;;;2.88;61.50;98680.34;4965326;28;20042;-88
2022/02/12 10:42:43;;;;;;;19.27;11.30;;;;;;;3.10;61.31;98678.13;4948602;28;20141;-87
2022/02/12 10:45:13;;;;;;;36.70;13.10;;;;;;;3.19;61.47;98684.63;4982920;28;20068;-83
2022/02/12 10:47:46;;;;;;;34.78;12.52;;;;;;;3.23;61.41;98680.00;4948977;28;20038;-86
2022/02/12 10:50:13;;;;;;;22.77;11.05;;;;;;;3.35;61.00;98688.06;5001504;28;20046;-91
2022/02/12 10:52:46;;;;;;;20.30;10.82;;;;;;;3.57;60.63;98692.88;4987191;28;20359;-93
2022/02/12 10:55:35;;;;;;;21.58;10.38;;;;;;;3.74;59.46;98691.81;4997943;28;20409;-89
2022/02/12 10:58:05;;;;;;;45.28;12.18;;;;;;;3.82;59.60;98689.53;4997546;28;20038;-88
2022/02/12 11:00:32;;;;;;;19.40;10.25;;;;;;;3.82;59.04;98673.66;4956165;28;20042;-88
2022/02/12 11:02:59;;;;;;;20.45;10.50;;;;;;;3.96;59.18;98683.38;4950461;28;20136;-82
2022/02/12 11:05:26;;;;;;;17.98;10.00;;;;;;;4.11;58.23;98689.50;4980450;28;20050;-83
2022/02/12 11:07:52;;;;;;;18.45;11.13;;;;;;;4.10;57.91;98690.44;4980569;28;20073;-86
2022/02/12 11:10:19;;;;;;;21.95;10.98;;;;;;;3.83;58.65;98691.22;4952246;28;20054;-83
2022/02/12 11:12:47;;;;;;;23.55;12.20;;;;;;;3.37;59.55;98695.88;4985825;28;20018;-85
2022/02/12 11:15:13;;;;;;;42.83;12.77;;;;;;;3.10;60.20;98693.97;4998932;28;20076;-92
2022/02/12 11:17:40;;;;;;;20.75;11.82;;;;;;;2.77;60.66;98688.03;4965830;28;20054;-92
2022/02/12 11:20:08;;;;;;;40.08;15.90;;;;;;;2.42;61.72;98693.56;4966058;28;20046;-90
2022/02/12 11:22:41;;;;;;;35.88;16.17;;;;;;;2.29;62.55;98705.75;4965837;28;20054;-90
2022/02/12 11:25:37;;;;;;;35.00;16.70;;;;;;;2.01;63.78;98704.66;4981879;28;20038;-91
2022/02/12 11:28:07;;;;;;;40.50;21.17;;;;;;;1.85;64.66;98706.44;4987448;28;20049;-89
2022/02/12 11:30:33;;;;;;;49.72;23.65;;;;;;;1.72;65.54;98710.66;4964843;28;20516;-89